createdAt,value
2023-04-21T00:00:45.547Z,9.04
2023-04-21T00:03:09.741Z,9.08
2023-04-21T00:05:34.072Z,9.00
2023-04-21T00:07:57.768Z,9.10
2023-04-21T00:10:21.486Z,9.07
2023-04-21T00:12:46.533Z,8.97
2023-04-21T00:15:11.432Z,8.91
2023-04-21T00:17:35.168Z,8.92
2023-04-21T00:19:59.829Z,8.88
2023-04-21T00:22:23.388Z,8.94
2023-04-21T00:24:47.522Z,8.88
2023-04-21T00:27:11.521Z,8.86
2023-04-21T00:29:36.642Z,8.88
2023-04-21T00:32:02.015Z,8.73
2023-04-21T00:34:27.668Z,8.72
2023-04-21T00:36:51.222Z,8.76
2023-04-21T00:39:15.373Z,8.79
2023-04-21T00:41:40.022Z,8.68
2023-04-21T00:44:06.104Z,8.61
2023-04-21T00:46:31.246Z,8.62
2023-04-21T00:48:55.842Z,8.58
2023-04-21T00:51:19.429Z,8.49
2023-04-21T00:53:43.183Z,8.53
2023-04-21T00:56:07.224Z,8.49
2023-04-21T00:58:33.962Z,8.48
2023-04-21T01:00:57.720Z,8.39
2023-04-21T01:03:22.868Z,8.43
2023-04-21T01:05:46.783Z,8.41
2023-04-21T01:08:10.701Z,8.29
2023-04-21T01:10:34.270Z,8.24
2023-04-21T01:12:57.923Z,8.20
2023-04-21T01:15:21.911Z,8.13
2023-04-21T01:17:46.130Z,8.20
2023-04-21T01:20:14.831Z,8.13
2023-04-21T01:22:42.806Z,8.11
2023-04-21T01:25:07.300Z,8.14
2023-04-21T01:27:31.058Z,8.19
2023-04-21T01:29:54.829Z,8.21
2023-04-21T01:32:21.713Z,8.06
2023-04-21T01:34:46.343Z,8.10
2023-04-21T01:37:11.352Z,8.01
2023-04-21T01:39:39.239Z,8.12
2023-04-21T01:42:02.910Z,8.20
2023-04-21T01:44:27.305Z,8.17
2023-04-21T01:46:50.908Z,8.08
2023-04-21T01:49:14.926Z,8.20
2023-04-21T01:51:38.616Z,8.03
2023-04-21T01:54:02.185Z,8.04
2023-04-21T01:56:27.211Z,8.06
2023-04-21T01:58:53.356Z,8.06
2023-04-21T02:01:17.016Z,8.13
2023-04-21T02:03:40.805Z,8.09
2023-04-21T02:06:05.492Z,8.09
2023-04-21T02:08:29.991Z,8.02
2023-04-21T02:10:53.620Z,7.99
2023-04-21T02:13:18.615Z,7.93
2023-04-21T02:15:42.652Z,7.96
2023-04-21T02:18:06.583Z,8.07
2023-04-21T02:20:30.423Z,8.08
2023-04-21T02:22:53.944Z,7.89
2023-04-21T02:25:17.551Z,8.00
2023-04-21T02:27:41.939Z,8.05
2023-04-21T02:30:09.190Z,8.01
2023-04-21T02:32:32.890Z,8.06
2023-04-21T02:34:56.810Z,8.04
2023-04-21T02:37:21.202Z,8.04
2023-04-21T02:39:44.919Z,8.05
2023-04-21T02:42:08.481Z,8.04
2023-04-21T02:44:32.080Z,8.04
2023-04-21T02:46:58.332Z,8.04
2023-04-21T02:49:22.102Z,8.01
2023-04-21T02:51:45.778Z,8.12
2023-04-21T02:54:09.539Z,8.15
2023-04-21T02:56:34.806Z,8.18
2023-04-21T02:58:58.619Z,8.12
2023-04-21T03:01:22.304Z,8.19
2023-04-21T03:03:47.510Z,8.22
2023-04-21T03:06:11.313Z,8.05
2023-04-21T03:08:36.210Z,8.20
2023-04-21T03:11:00.155Z,8.21
2023-04-21T03:13:24.497Z,8.03
2023-04-21T03:15:48.202Z,8.06
2023-04-21T03:18:13.205Z,8.08
2023-04-21T03:20:38.319Z,8.07
2023-04-21T03:23:01.961Z,8.03
2023-04-21T03:25:27.754Z,7.99
2023-04-21T03:27:51.389Z,8.08
2023-04-21T03:30:14.983Z,7.95
2023-04-21T03:32:38.682Z,8.00
2023-04-21T03:35:02.258Z,7.96
2023-04-21T03:37:27.302Z,7.91
2023-04-21T03:39:50.872Z,8.01
2023-04-21T03:42:15.906Z,7.96
2023-04-21T03:44:39.530Z,8.02
2023-04-21T03:47:04.583Z,8.03
2023-04-21T03:49:28.179Z,8.00
2023-04-21T03:51:51.831Z,7.97
2023-04-21T03:54:16.831Z,8.00
2023-04-21T03:56:40.645Z,8.03
2023-04-21T03:59:04.334Z,7.89
2023-04-21T04:01:35.734Z,7.99
2023-04-21T04:04:00.050Z,7.90
2023-04-21T04:06:24.046Z,7.91
2023-04-21T04:08:48.008Z,7.88
2023-04-21T04:11:13.453Z,7.72
2023-04-21T04:13:37.173Z,7.77
2023-04-21T04:16:01.342Z,7.72
2023-04-21T04:18:24.981Z,7.75
2023-04-21T04:20:48.502Z,7.83
2023-04-21T04:23:12.341Z,7.72
2023-04-21T04:25:37.369Z,7.84
2023-04-21T04:28:02.873Z,7.85
2023-04-21T04:30:29.316Z,7.81
2023-04-21T04:32:53.086Z,7.87
2023-04-21T04:35:16.823Z,7.77
2023-04-21T04:37:45.682Z,7.94
2023-04-21T04:40:12.322Z,8.01
2023-04-21T04:42:36.821Z,7.97
2023-04-21T04:45:03.619Z,7.95
2023-04-21T04:47:27.526Z,8.14
2023-04-21T04:49:51.098Z,8.06
2023-04-21T04:52:15.005Z,8.04
2023-04-21T04:54:40.625Z,8.17
2023-04-21T04:57:05.345Z,8.25
2023-04-21T04:59:32.311Z,8.28
2023-04-21T05:02:04.354Z,8.27
2023-04-21T05:04:31.643Z,8.40
2023-04-21T05:06:59.461Z,8.48
2023-04-21T05:09:26.760Z,8.46
2023-04-21T05:11:50.342Z,8.58
2023-04-21T05:14:14.050Z,8.53
2023-04-21T05:16:37.643Z,8.69
2023-04-21T05:19:04.319Z,8.74
2023-04-21T05:21:28.486Z,8.75
2023-04-21T05:23:52.293Z,8.77
2023-04-21T05:26:25.983Z,8.99
2023-04-21T05:28:55.700Z,8.99
2023-04-21T05:31:24.177Z,9.16
2023-04-21T05:34:09.586Z,9.16
2023-04-21T05:36:43.452Z,9.20
2023-04-21T05:39:07.628Z,9.35
2023-04-21T05:41:33.776Z,9.43
2023-04-21T05:44:02.013Z,9.57
2023-04-21T05:46:26.683Z,9.59
2023-04-21T05:51:45.502Z,9.94
2023-04-21T05:54:14.088Z,10.01
2023-04-21T05:56:37.881Z,10.04
2023-04-21T05:59:01.876Z,10.35
2023-04-21T06:01:36.328Z,10.58
2023-04-21T06:04:04.822Z,10.97
2023-04-21T06:06:35.953Z,11.27
2023-04-21T06:09:03.626Z,11.63
2023-04-21T06:11:37.089Z,12.11
2023-04-21T06:14:03.432Z,12.27
2023-04-21T06:16:27.963Z,12.83
2023-04-21T06:18:52.048Z,12.99
2023-04-21T06:21:15.966Z,13.06
2023-04-21T06:23:39.604Z,13.44
2023-04-21T06:26:05.197Z,13.96
2023-04-21T06:28:34.873Z,14.10
2023-04-21T06:30:58.823Z,14.48
2023-04-21T06:33:22.718Z,15.04
2023-04-21T06:35:46.544Z,15.41
2023-04-21T06:38:10.827Z,14.90
2023-04-21T06:40:37.994Z,15.27
2023-04-21T06:43:02.097Z,15.72
2023-04-21T06:45:29.620Z,16.03
2023-04-21T06:47:53.532Z,17.06
2023-04-21T06:50:17.573Z,16.59
2023-04-21T06:52:43.466Z,17.46
2023-04-21T06:55:08.912Z,17.88
2023-04-21T06:57:32.503Z,17.32
2023-04-21T06:59:56.053Z,17.06
2023-04-21T07:02:22.302Z,17.82
2023-04-21T07:04:46.107Z,17.35
2023-04-21T07:07:09.702Z,17.16
2023-04-21T07:09:33.852Z,17.72
2023-04-21T07:11:57.701Z,16.61
2023-04-21T07:14:21.221Z,16.28
2023-04-21T07:16:44.932Z,17.04
2023-04-21T07:19:09.885Z,16.98
2023-04-21T07:21:36.277Z,16.94
2023-04-21T07:24:00.035Z,17.01
2023-04-21T07:26:23.648Z,17.42
2023-04-21T07:28:47.190Z,16.66
2023-04-21T07:31:10.832Z,16.74
2023-04-21T07:33:34.664Z,16.83
2023-04-21T07:35:59.992Z,16.87
2023-04-21T07:38:23.580Z,17.18
2023-04-21T07:40:47.346Z,16.62
2023-04-21T07:43:11.052Z,16.91
2023-04-21T07:45:34.694Z,16.66
2023-04-21T07:47:59.375Z,16.66
2023-04-21T07:50:23.307Z,16.77
2023-04-21T07:52:49.464Z,17.13
2023-04-21T07:55:14.626Z,17.25
2023-04-21T07:57:40.245Z,16.64
2023-04-21T08:00:04.304Z,17.04
2023-04-21T08:02:38.198Z,17.01
2023-04-21T08:05:02.427Z,17.42
2023-04-21T08:07:26.136Z,17.52
2023-04-21T08:09:52.191Z,17.46
2023-04-21T08:12:16.271Z,17.72
2023-04-21T08:14:41.901Z,18.02
2023-04-21T08:17:05.551Z,17.41
2023-04-21T08:19:29.214Z,17.37
2023-04-21T08:21:52.985Z,17.41
2023-04-21T08:24:16.709Z,17.48
2023-04-21T08:26:41.698Z,17.34
2023-04-21T08:29:07.447Z,17.42
2023-04-21T08:31:31.494Z,17.60
2023-04-21T08:34:01.725Z,16.89
2023-04-21T08:36:29.735Z,16.99
2023-04-21T08:38:54.049Z,17.01
2023-04-21T08:41:17.805Z,17.27
2023-04-21T08:43:43.545Z,17.46
2023-04-21T08:46:10.066Z,17.41
2023-04-21T08:48:37.589Z,17.63
2023-04-21T08:51:01.292Z,17.96
2023-04-21T08:53:25.089Z,17.73
2023-04-21T08:56:07.614Z,17.62
2023-04-21T08:58:34.706Z,17.87
2023-04-21T09:00:59.891Z,17.71
2023-04-21T09:03:26.229Z,18.33
2023-04-21T09:05:59.851Z,18.04
2023-04-21T09:08:25.378Z,17.94
2023-04-21T09:10:53.376Z,18.46
2023-04-21T09:13:20.890Z,19.04
2023-04-21T09:15:46.252Z,19.30
2023-04-21T09:18:16.536Z,19.39
2023-04-21T09:20:40.469Z,19.47
2023-04-21T09:23:06.537Z,18.50
2023-04-21T09:25:33.328Z,19.16
2023-04-21T09:27:57.201Z,19.37
2023-04-21T09:30:22.769Z,19.40
2023-04-21T09:32:46.418Z,19.39
2023-04-21T09:35:13.340Z,19.54
2023-04-21T09:37:37.614Z,19.61
2023-04-21T09:42:31.209Z,19.93
2023-04-21T09:45:10.707Z,19.87
2023-04-21T09:47:43.001Z,19.89
2023-04-21T09:50:12.603Z,20.08
2023-04-21T09:52:40.735Z,20.26
2023-04-21T09:55:05.903Z,20.42
2023-04-21T09:57:32.768Z,20.05
2023-04-21T10:00:05.255Z,20.59
2023-04-21T10:02:32.836Z,20.08
2023-04-21T10:04:56.908Z,20.29
2023-04-21T10:07:20.541Z,20.24
2023-04-21T10:09:50.815Z,20.45
2023-04-21T10:12:15.958Z,20.64
2023-04-21T10:14:39.504Z,20.71
2023-04-21T10:17:06.893Z,21.33
2023-04-21T10:19:35.539Z,21.00
2023-04-21T10:21:59.836Z,21.33
2023-04-21T10:24:23.448Z,21.48
2023-04-21T10:26:48.897Z,21.61
2023-04-21T10:29:12.467Z,21.60
2023-04-21T10:31:39.361Z,21.67
2023-04-21T10:34:32.002Z,21.43
2023-04-21T10:37:23.073Z,21.37
2023-04-21T10:39:54.679Z,21.62
2023-04-21T10:42:31.912Z,21.82
2023-04-21T10:45:04.179Z,21.46
2023-04-21T10:47:28.763Z,20.86
2023-04-21T10:49:52.368Z,20.76
2023-04-21T10:52:16.601Z,20.59
2023-04-21T10:54:45.930Z,21.68
2023-04-21T10:57:12.594Z,21.25
2023-04-21T10:59:37.924Z,21.30
2023-04-21T11:02:01.887Z,20.97
2023-04-21T11:04:26.383Z,21.37
2023-04-21T11:07:07.972Z,21.58
2023-04-21T11:09:31.882Z,21.57
2023-04-21T11:12:00.848Z,21.43
2023-04-21T11:14:24.676Z,21.88
2023-04-21T11:16:50.112Z,21.99
2023-04-21T11:19:17.074Z,21.83
2023-04-21T11:21:40.675Z,22.27
2023-04-21T11:24:04.375Z,22.14
2023-04-21T11:26:38.235Z,21.63
2023-04-21T11:29:06.591Z,21.46
2023-04-21T11:31:31.018Z,21.59
2023-04-21T11:33:58.257Z,22.03
2023-04-21T11:36:23.678Z,21.64
2023-04-21T11:38:47.539Z,21.11
2023-04-21T11:41:12.164Z,20.83
2023-04-21T11:43:36.124Z,21.92
2023-04-21T11:46:14.253Z,21.95
2023-04-21T11:48:38.046Z,22.32
2023-04-21T11:51:03.323Z,22.35
2023-04-21T11:53:27.186Z,22.38
2023-04-21T11:55:50.789Z,21.57
2023-04-21T11:58:16.509Z,21.58
2023-04-21T12:00:40.846Z,22.32
2023-04-21T12:03:04.797Z,21.61
2023-04-21T12:05:37.352Z,22.07
2023-04-21T12:08:03.884Z,21.72
2023-04-21T12:10:27.462Z,21.95
2023-04-21T12:12:51.791Z,22.63
2023-04-21T12:15:23.882Z,21.97
2023-04-21T12:17:49.192Z,21.84
2023-04-21T12:20:14.697Z,21.89
2023-04-21T12:22:38.418Z,21.99
2023-04-21T12:25:03.373Z,22.37
2023-04-21T12:27:28.444Z,22.56
2023-04-21T12:29:52.195Z,22.50
2023-04-21T12:32:16.967Z,21.94
2023-04-21T12:34:40.500Z,21.91
2023-04-21T12:37:04.623Z,22.32
2023-04-21T12:39:29.170Z,22.20
2023-04-21T12:41:54.648Z,22.28
2023-04-21T12:44:18.182Z,22.52
2023-04-21T12:46:42.134Z,22.15
2023-04-21T12:49:07.557Z,22.15
2023-04-21T12:51:32.195Z,22.45
2023-04-21T12:53:55.751Z,22.45
2023-04-21T12:56:19.922Z,22.20
2023-04-21T12:58:44.883Z,22.12
2023-04-21T13:01:08.575Z,21.91
2023-04-21T13:03:32.716Z,22.51
2023-04-21T13:05:56.575Z,21.53
2023-04-21T13:08:20.133Z,21.59
2023-04-21T13:10:45.828Z,21.63
2023-04-21T13:13:09.474Z,21.54
2023-04-21T13:15:34.772Z,21.55
2023-04-21T13:17:58.342Z,21.84
2023-04-21T13:20:22.703Z,21.70
2023-04-21T13:22:46.537Z,21.63
2023-04-21T13:25:10.964Z,22.67
2023-04-21T13:27:34.537Z,22.43
2023-04-21T13:29:58.926Z,21.76
2023-04-21T13:32:23.889Z,22.03
2023-04-21T13:34:47.548Z,21.92
2023-04-21T13:37:15.343Z,22.14
2023-04-21T13:39:39.027Z,21.97
2023-04-21T13:42:02.694Z,21.39
2023-04-21T13:44:26.335Z,21.74
2023-04-21T13:46:52.239Z,21.96
2023-04-21T13:49:17.804Z,22.32
2023-04-21T13:51:41.371Z,21.31
2023-04-21T13:54:05.215Z,21.38
2023-04-21T13:56:28.853Z,21.84
2023-04-21T13:58:52.520Z,21.66
2023-04-21T14:01:16.341Z,21.85
2023-04-21T14:03:40.259Z,22.08
2023-04-21T14:06:05.688Z,21.90
2023-04-21T14:08:29.618Z,21.63
2023-04-21T14:10:53.243Z,21.99
2023-04-21T14:13:33.169Z,20.90
2023-04-21T14:15:57.548Z,21.36
2023-04-21T14:18:21.184Z,21.27
2023-04-21T14:20:46.437Z,21.56
2023-04-21T14:23:11.407Z,21.14
2023-04-21T14:25:35.104Z,21.59
2023-04-21T14:27:58.865Z,20.89
2023-04-21T14:30:22.821Z,21.41
2023-04-21T14:32:46.383Z,21.20
2023-04-21T14:35:11.022Z,21.56
2023-04-21T14:37:34.616Z,21.15
2023-04-21T14:39:59.617Z,21.59
2023-04-21T14:42:23.151Z,21.41
2023-04-21T14:44:46.791Z,21.18
2023-04-21T14:47:11.165Z,21.52
2023-04-21T14:49:35.392Z,21.44
2023-04-21T14:51:59.269Z,21.46
2023-04-21T14:54:22.963Z,21.49
2023-04-21T14:56:47.866Z,21.79
2023-04-21T14:59:11.532Z,21.32
2023-04-21T15:01:35.192Z,21.04
2023-04-21T15:03:59.938Z,20.88
2023-04-21T15:06:23.905Z,21.20
2023-04-21T15:08:48.009Z,20.84
2023-04-21T15:11:11.717Z,20.22
2023-04-21T15:13:36.936Z,20.55
2023-04-21T15:16:00.603Z,20.55
2023-04-21T15:18:24.198Z,20.92
2023-04-21T15:20:47.823Z,21.02
2023-04-21T15:23:11.804Z,20.68
2023-04-21T15:25:36.240Z,20.66
2023-04-21T15:27:59.816Z,20.42
2023-04-21T15:30:24.884Z,20.37
2023-04-21T15:32:48.568Z,20.55
2023-04-21T15:35:12.172Z,20.53
2023-04-21T15:37:35.847Z,20.37
2023-04-21T15:39:59.457Z,20.05
2023-04-21T15:42:23.781Z,20.10
2023-04-21T15:44:47.913Z,19.71
2023-04-21T15:47:13.000Z,19.79
2023-04-21T15:49:36.737Z,19.86
2023-04-21T15:52:00.580Z,19.86
2023-04-21T15:54:24.527Z,19.36
2023-04-21T15:56:48.134Z,19.69
2023-04-21T15:59:11.649Z,19.99
2023-04-21T16:01:35.318Z,19.96
2023-04-21T16:04:00.676Z,19.94
2023-04-21T16:06:25.298Z,19.64
2023-04-21T16:08:48.888Z,19.80
2023-04-21T16:11:12.656Z,19.78
2023-04-21T16:13:36.613Z,19.76
2023-04-21T16:16:00.366Z,19.54
2023-04-21T16:18:24.814Z,19.52
2023-04-21T16:20:50.402Z,19.52
2023-04-21T16:23:15.327Z,19.37
2023-04-21T16:25:39.436Z,19.62
2023-04-21T16:28:03.132Z,19.28
2023-04-21T16:30:26.750Z,19.34
2023-04-21T16:32:50.535Z,19.36
2023-04-21T16:35:14.218Z,19.38
2023-04-21T16:37:40.600Z,19.63
2023-04-21T16:40:06.399Z,19.55
2023-04-21T16:42:29.882Z,19.38
2023-04-21T16:44:58.938Z,19.35
2023-04-21T16:47:22.744Z,19.50
2023-04-21T16:49:46.490Z,19.44
2023-04-21T16:52:11.205Z,19.27
2023-04-21T16:54:36.505Z,19.04
2023-04-21T16:57:02.101Z,18.90
2023-04-21T16:59:25.773Z,19.01
2023-04-21T17:01:49.351Z,19.02
2023-04-21T17:04:14.067Z,18.88
2023-04-21T17:06:37.783Z,18.97
2023-04-21T17:09:01.725Z,18.75
2023-04-21T17:11:27.284Z,18.84
2023-04-21T17:13:50.894Z,18.89
2023-04-21T17:16:14.704Z,18.82
2023-04-21T17:18:38.301Z,18.84
2023-04-21T17:21:01.849Z,18.90
2023-04-21T17:23:25.542Z,18.61
2023-04-21T17:25:49.133Z,18.71
2023-04-21T17:28:15.310Z,18.51
2023-04-21T17:30:38.904Z,18.60
2023-04-21T17:33:15.474Z,18.48
2023-04-21T17:35:46.011Z,18.48
2023-04-21T17:38:16.005Z,18.38
2023-04-21T17:40:39.580Z,18.21
2023-04-21T17:43:03.165Z,18.23
2023-04-21T17:45:28.162Z,18.18
2023-04-21T17:47:51.801Z,18.03
2023-04-21T17:50:15.363Z,17.93
2023-04-21T17:52:38.982Z,17.99
2023-04-21T17:55:02.598Z,17.85
2023-04-21T17:57:26.303Z,17.69
2023-04-21T17:59:49.890Z,17.80
2023-04-21T18:02:15.051Z,17.76
2023-04-21T18:04:39.168Z,17.54
2023-04-21T18:07:03.706Z,17.53
2023-04-21T18:09:27.515Z,17.52
2023-04-21T18:11:51.142Z,17.52
2023-04-21T18:14:15.279Z,17.39
2023-04-21T18:16:39.047Z,17.33
2023-04-21T18:19:04.507Z,17.11
2023-04-21T18:21:28.257Z,17.15
2023-04-21T18:23:51.905Z,17.06
2023-04-21T18:26:15.782Z,17.00
2023-04-21T18:28:39.563Z,16.85
2023-04-21T18:31:03.519Z,16.79
2023-04-21T18:33:27.362Z,16.67
2023-04-21T18:35:52.739Z,16.55
2023-04-21T18:38:16.295Z,16.28
2023-04-21T18:40:40.865Z,16.26
2023-04-21T18:43:05.074Z,16.20
2023-04-21T18:45:29.058Z,16.14
2023-04-21T18:47:52.780Z,16.07
2023-04-21T18:50:16.398Z,15.97
2023-04-21T18:52:41.468Z,15.80
2023-04-21T18:55:05.690Z,15.75
2023-04-21T18:57:29.219Z,15.60
2023-04-21T18:59:53.109Z,15.57
2023-04-21T19:02:17.015Z,15.44
2023-04-21T19:04:41.133Z,15.42
2023-04-21T19:07:08.312Z,15.36
2023-04-21T19:09:33.306Z,15.16
2023-04-21T19:11:56.914Z,15.12
2023-04-21T19:14:20.546Z,15.04
2023-04-21T19:16:44.146Z,15.07
2023-04-21T19:19:07.960Z,14.99
2023-04-21T19:21:31.476Z,14.78
2023-04-21T19:23:55.168Z,14.86
2023-04-21T19:26:21.866Z,14.77
2023-04-21T19:28:46.311Z,14.69
2023-04-21T19:31:10.497Z,14.63
2023-04-21T19:33:34.124Z,14.51
2023-04-21T19:35:58.405Z,14.48
2023-04-21T19:38:22.162Z,14.41
2023-04-21T19:40:46.196Z,14.33
2023-04-21T19:43:11.215Z,14.07
2023-04-21T19:45:34.865Z,14.14
2023-04-21T19:47:58.537Z,14.12
2023-04-21T19:50:22.493Z,14.02
2023-04-21T19:52:47.016Z,13.97
2023-04-21T19:55:11.091Z,13.90
2023-04-21T19:57:35.482Z,13.92
2023-04-21T20:00:00.454Z,13.78
2023-04-21T20:02:24.088Z,13.79
2023-04-21T20:04:48.644Z,13.73
2023-04-21T20:07:12.818Z,13.70
2023-04-21T20:09:36.599Z,13.75
2023-04-21T20:12:00.449Z,13.64
2023-04-21T20:14:24.004Z,13.58
2023-04-21T20:16:49.037Z,13.54
2023-04-21T20:19:12.616Z,13.44
2023-04-21T20:21:36.245Z,13.45
2023-04-21T20:23:59.760Z,13.31
2023-04-21T20:26:23.682Z,13.23
2023-04-21T20:28:47.514Z,13.21
2023-04-21T20:31:11.222Z,13.19
2023-04-21T20:33:36.201Z,13.10
2023-04-21T20:36:02.637Z,13.13
2023-04-21T20:38:26.585Z,12.92
2023-04-21T20:40:50.300Z,12.98
2023-04-21T20:43:15.225Z,12.96
2023-04-21T20:45:38.914Z,12.75
2023-04-21T20:48:02.517Z,12.86
2023-04-21T20:50:27.597Z,12.83
2023-04-21T20:52:51.251Z,12.55
2023-04-21T20:55:15.005Z,12.68
2023-04-21T20:57:39.021Z,12.67
2023-04-21T21:00:04.874Z,12.65
2023-04-21T21:02:28.500Z,12.49
2023-04-21T21:04:52.237Z,12.33
2023-04-21T21:07:17.193Z,12.26
2023-04-21T21:09:41.099Z,12.35
2023-04-21T21:12:05.093Z,12.36
2023-04-21T21:14:28.660Z,12.32
2023-04-21T21:16:54.611Z,12.36
2023-04-21T21:19:18.420Z,12.29
2023-04-21T21:21:42.028Z,12.39
2023-04-21T21:24:07.897Z,12.38
2023-04-21T21:26:31.689Z,12.37
2023-04-21T21:28:55.309Z,12.39
2023-04-21T21:31:18.877Z,12.35
2023-04-21T21:33:42.527Z,12.37
2023-04-21T21:36:07.178Z,12.35
2023-04-21T21:38:30.777Z,12.38
2023-04-21T21:40:55.812Z,12.31
2023-04-21T21:43:19.430Z,12.26
2023-04-21T21:45:43.072Z,12.29
2023-04-21T21:48:07.292Z,12.27
2023-04-21T21:50:30.852Z,12.26
2023-04-21T21:52:54.409Z,12.21
2023-04-21T21:55:18.087Z,12.20
2023-04-21T21:57:43.185Z,12.16
2023-04-21T22:00:12.315Z,12.07
2023-04-21T22:02:36.959Z,12.12
2023-04-21T22:05:00.820Z,12.07
2023-04-21T22:07:25.056Z,12.11
2023-04-21T22:09:48.627Z,11.99
2023-04-21T22:12:12.289Z,11.89
2023-04-21T22:14:37.351Z,11.89
2023-04-21T22:17:00.974Z,11.82
2023-04-21T22:19:25.978Z,11.78
2023-04-21T22:21:49.743Z,11.82
2023-04-21T22:24:13.345Z,11.86
2023-04-21T22:26:37.118Z,11.76
2023-04-21T22:29:00.651Z,11.65
2023-04-21T22:31:25.842Z,11.68
2023-04-21T22:33:49.490Z,11.58
2023-04-21T22:36:13.078Z,11.57
2023-04-21T22:38:36.731Z,11.51
2023-04-21T22:41:00.593Z,11.44
2023-04-21T22:43:24.144Z,11.22
2023-04-21T22:45:48.738Z,11.26
2023-04-21T22:48:14.169Z,11.25
2023-04-21T22:50:38.136Z,11.22
2023-04-21T22:53:01.795Z,11.14
2023-04-21T22:55:25.615Z,11.06
2023-04-21T22:57:49.734Z,10.99
2023-04-21T23:00:14.262Z,10.94
2023-04-21T23:02:38.235Z,10.89
2023-04-21T23:05:03.615Z,10.84
2023-04-21T23:07:27.201Z,10.70
2023-04-21T23:09:50.916Z,10.64
2023-04-21T23:12:14.577Z,10.64
2023-04-21T23:14:38.240Z,10.67
2023-04-21T23:17:02.160Z,10.51
2023-04-21T23:19:25.772Z,10.40
2023-04-21T23:21:50.766Z,10.40
2023-04-21T23:24:14.462Z,10.38
2023-04-21T23:26:37.977Z,10.34
2023-04-21T23:29:01.782Z,10.30
2023-04-21T23:31:26.064Z,10.06
2023-04-21T23:33:49.960Z,10.20
2023-04-21T23:36:13.507Z,10.21
2023-04-21T23:38:38.459Z,10.12
2023-04-21T23:41:02.032Z,10.13
2023-04-21T23:43:25.722Z,10.05
2023-04-21T23:45:49.378Z,9.95
2023-04-21T23:48:12.973Z,9.94
2023-04-21T23:50:36.839Z,9.94
2023-04-21T23:53:01.042Z,9.87
2023-04-21T23:55:26.030Z,9.83
2023-04-21T23:57:49.723Z,9.78
